Terminal Aerodrome Forecast
Issued by NWS

Home | Current Version | Previous Version | Graphics & Text | Print | Product List | Glossary On
Versions: 1 2 3 4 5 6 7 8 9 10 11 12 13 14 15 16 17 18
889
FTUS43 KICT 201739
TAFHUT
TAF
KHUT 201739Z 2018/2118 29016G24KT P6SM BKN030
     FM202000 29016G23KT P6SM SCT040
     FM210100 30008KT P6SM SKC
     FM211500 23005KT P6SM SKC=

USA.gov is the U.S. government's official web portal to all federal, state and local government web resources and services.